• Join FlightAware (Why Join?)
  • Login
  • US Flag 
04:10AM EST


 

Airport Tracker/Info


-or-


 

Live Flight TrackerFlight Track Log ✈ EJA226 ✈ 20-Jan-2014 ✈ KCMH - KCMH

Flight Track Log - Related Links

Times and Time Zones

All times are in EST time to prevent confusion due to time zone crossing. See the EJA226 flight status page for this flight to view local times or setup timezone preferences in your user account.

Time Position Orientation Groundspeed Altitude Reporting Facility
EST Latitude Longitude Course Direction KTS MPH feet Rate Location/Type
09:33AM 40.0019 -82.9125 276° West 149 171 1,500  Level Indianapolis Center
09:34AM 40.0058 -82.9597 276° West 194 223 3,400 1,980 Climbing Indianapolis Center
09:34AM 40.0058 -82.9519 90° East 181 208 3,100 3,660 Descending Indianapolis Center
09:35AM 40.0075 -83.0531 271° West 227 261 7,600 4,140 Climbing Indianapolis Center
09:36AM 40.0097 -83.1361 272° West 230 265 11,700 3,420 Climbing Indianapolis Center
09:37AM 40.0147 -83.2208 274° West 235 270 14,700 1,980 Climbing Indianapolis Center
09:38AM 40.0153 -83.3156 270° West 261 300 15,900 600 Climbing Indianapolis Center
09:39AM 40.0150 -83.4186 270° West 287 330 16,000 60 Climbing Indianapolis Center
09:40AM 40.0147 -83.5392 270° West 284 327 16,100 -660 Climbing Indianapolis Center
09:41AM 40.0578 -83.6233 304° West 314 361 14,700 -1,800 Descending Indianapolis Center
09:42AM 40.1467 -83.5822 19° North 468 539 12,900 -2,040 Descending Indianapolis Center
09:42AM 40.1600 -83.5553 57° Northeast 440 506 12,600 -2,100 Descending Indianapolis Center
09:43AM 40.1903 -83.4197 74° East 486 559 10,800 -1,560 Descending Indianapolis Center
09:44AM 40.1611 -83.2450 102° East 463 533 9,900 -480 Descending Indianapolis Center
09:45AM 40.1303 -83.0864 104° East 450 518 9,900  Level Indianapolis Center
09:46AM 40.0989 -82.9308 105° East 438 504 9,900 -1,140 Level Indianapolis Center
09:47AM 40.0753 -82.8014 103° East 323 372 7,700 -3,000 Descending Indianapolis Center
09:48AM 40.0511 -82.6992 107° East 276 318 3,900 -2,340 Descending Indianapolis Center
09:49AM 39.9928 -82.6956 177° South 194 223 3,000 -600 Descending Indianapolis Center
09:50AM 39.9936 -82.7531 271° West 147 169 2,800 -480 Descending Indianapolis Center
09:51AM 39.9956 -82.8022 273° West 118 136 2,000 -720 Descending Indianapolis Center
09:52AM 39.9997 -82.8467 277° West 111 128 1,300 -720 Descending Indianapolis Center